Time;durP1;ratioP1;P1;durP2;ratioP2;P2;SDS_P1;SDS_P2;PMS_P1;PMS_P2;Temp;Humidity;BMP_temperature;BMP_pressure;BME280_temperature;BME280_humidity;BME280_pressure;Samples;Min_cycle;Max_cycle;Signal;HPM_P1;HPM_P2
2022/04/29 00:00:51;;;;;;;9.30;3.58;;;7.20;99.90;;;;;;5032745;28;20128;-80
2022/04/29 00:03:17;;;;;;;5.85;3.40;;;7.20;99.90;;;;;;5031862;28;20457;-80
2022/04/29 00:05:44;;;;;;;7.32;3.05;;;7.10;99.90;;;;;;5032633;28;20171;-80
2022/04/29 00:08:11;;;;;;;9.75;3.15;;;7.00;99.90;;;;;;5036829;28;20088;-81
2022/04/29 00:10:37;;;;;;;7.60;3.10;;;7.00;99.90;;;;;;5040417;28;20503;-81
2022/04/29 00:13:04;;;;;;;7.03;3.40;;;7.00;99.90;;;;;;5035247;28;20046;-80
2022/04/29 00:15:31;;;;;;;7.80;3.53;;;6.90;99.90;;;;;;5033413;28;20116;-80
2022/04/29 00:17:57;;;;;;;7.32;3.75;;;6.90;99.90;;;;;;5036862;28;20092;-81
2022/04/29 00:20:22;;;;;;;9.13;3.80;;;6.90;99.90;;;;;;5036583;28;20029;-80
2022/04/29 00:22:48;;;;;;;10.50;4.05;;;6.80;99.90;;;;;;5035342;28;20088;-80
2022/04/29 00:25:14;;;;;;;9.60;4.03;;;6.70;99.90;;;;;;5034537;28;20129;-80
2022/04/29 00:27:41;;;;;;;9.00;3.63;;;6.50;99.90;;;;;;5032920;28;20430;-80
2022/04/29 00:30:09;;;;;;;6.60;3.90;;;6.50;99.90;;;;;;5032215;28;20034;-80
2022/04/29 00:32:36;;;;;;;11.43;4.88;;;6.50;99.90;;;;;;5032957;28;20499;-80
2022/04/29 00:35:02;;;;;;;11.00;3.95;;;6.50;99.90;;;;;;5033794;28;20140;-80
2022/04/29 00:37:27;;;;;;;8.23;4.13;;;6.40;99.90;;;;;;5032866;28;20038;-80
2022/04/29 00:39:53;;;;;;;8.32;3.80;;;6.40;99.90;;;;;;5030670;28;20044;-80
2022/04/29 00:42:22;;;;;;;8.20;3.70;;;6.50;99.90;;;;;;5031361;28;20048;-81
2022/04/29 00:44:48;;;;;;;13.02;4.07;;;6.40;99.90;;;;;;5032367;28;20138;-80
2022/04/29 00:47:18;;;;;;;6.90;4.05;;;6.40;99.90;;;;;;5031848;28;20048;-80
2022/04/29 00:49:44;;;;;;;7.47;3.92;;;6.50;99.90;;;;;;5031486;28;20578;-80
2022/04/29 00:52:16;;;;;;;7.82;3.95;;;6.50;99.90;;;;;;5031753;28;20068;-80
2022/04/29 00:54:45;;;;;;;11.32;4.68;;;6.50;99.90;;;;;;5031993;28;20045;-81
2022/04/29 00:57:25;;;;;;;7.35;3.60;;;6.50;99.90;;;;;;5031059;28;20125;-80
2022/04/29 00:59:59;;;;;;;9.73;3.42;;;6.50;99.90;;;;;;5015624;28;20029;-81
2022/04/29 01:02:25;;;;;;;10.73;3.95;;;6.40;99.90;;;;;;5033733;28;20044;-80
2022/04/29 01:05:05;;;;;;;5.53;3.40;;;6.40;99.90;;;;;;5032144;28;20034;-80
2022/04/29 01:07:33;;;;;;;7.70;3.40;;;6.50;99.90;;;;;;5033234;28;20099;-80
2022/04/29 01:09:59;;;;;;;8.95;3.42;;;6.40;99.90;;;;;;5034360;28;20132;-80
2022/04/29 01:12:26;;;;;;;8.18;3.17;;;6.40;99.90;;;;;;5033910;28;20108;-81
2022/04/29 01:14:57;;;;;;;8.00;3.70;;;6.50;99.90;;;;;;5035551;28;20038;-81
2022/04/29 01:17:23;;;;;;;10.07;3.40;;;6.40;99.90;;;;;;5036666;28;20037;-80
2022/04/29 01:19:49;;;;;;;10.70;4.00;;;6.40;99.90;;;;;;5018870;28;20041;-81
2022/04/29 01:22:15;;;;;;;11.15;3.70;;;6.40;99.90;;;;;;5035042;28;20052;-80
2022/04/29 01:24:41;;;;;;;6.65;3.58;;;6.40;99.90;;;;;;5033699;28;20395;-81
2022/04/29 01:27:10;;;;;;;5.68;3.15;;;6.30;99.90;;;;;;5034103;28;20041;-80
2022/04/29 01:29:41;;;;;;;7.50;3.55;;;6.20;99.90;;;;;;5034094;28;20080;-82
2022/04/29 01:32:09;;;;;;;7.22;3.63;;;6.30;99.90;;;;;;5035987;28;20057;-81
2022/04/29 01:34:36;;;;;;;8.07;3.80;;;6.20;99.90;;;;;;5037459;28;20045;-80
2022/04/29 01:37:01;;;;;;;6.65;3.70;;;6.10;99.90;;;;;;5037257;28;20034;-80
2022/04/29 01:39:27;;;;;;;9.18;3.67;;;6.00;99.90;;;;;;5036767;28;20103;-81
2022/04/29 01:41:52;;;;;;;10.32;4.38;;;6.00;99.90;;;;;;5037409;28;20025;-80
2022/04/29 01:44:18;;;;;;;6.65;3.63;;;6.00;99.90;;;;;;5036825;28;20038;-80
2022/04/29 01:46:43;;;;;;;10.60;4.53;;;6.00;99.90;;;;;;5034335;28;20037;-80
2022/04/29 01:49:10;;;;;;;10.63;4.38;;;5.90;99.90;;;;;;5035954;28;20132;-80
2022/04/29 01:51:35;;;;;;;9.18;4.05;;;5.90;99.90;;;;;;5036014;28;20045;-81
2022/04/29 01:54:01;;;;;;;6.55;3.72;;;5.90;99.90;;;;;;5036218;28;20037;-81
2022/04/29 01:56:32;;;;;;;9.25;4.15;;;6.00;99.90;;;;;;5034783;28;20049;-80
2022/04/29 01:59:00;;;;;;;7.20;3.80;;;6.00;99.90;;;;;;5034959;28;20124;-81
2022/04/29 02:01:27;;;;;;;9.55;4.20;;;6.10;99.90;;;;;;5035171;28;20041;-80
2022/04/29 02:03:52;;;;;;;9.13;4.25;;;6.10;99.90;;;;;;5037982;28;20495;-80
2022/04/29 02:06:18;;;;;;;10.98;3.90;;;6.00;99.90;;;;;;5035566;28;20081;-80
2022/04/29 02:08:43;;;;;;;9.02;4.50;;;5.90;99.90;;;;;;5034683;28;20041;-80
2022/04/29 02:11:09;;;;;;;7.97;4.32;;;5.80;99.90;;;;;;5034746;28;20538;-80
2022/04/29 02:13:34;;;;;;;9.90;5.38;;;5.80;99.90;;;;;;5034235;28;20068;-81
2022/04/29 02:16:00;;;;;;;5.97;4.15;;;5.80;99.90;;;;;;5036479;28;20037;-80
2022/04/29 02:18:25;;;;;;;9.05;4.82;;;5.60;99.90;;;;;;5018094;28;20045;-80
2022/04/29 02:20:51;;;;;;;7.85;4.88;;;5.60;99.90;;;;;;5034350;28;20044;-80
2022/04/29 02:23:16;;;;;;;9.80;5.05;;;5.60;99.90;;;;;;5034579;28;20052;-81
2022/04/29 02:25:42;;;;;;;8.70;5.03;;;5.60;99.90;;;;;;5033202;28;20056;-80
2022/04/29 02:28:07;;;;;;;7.30;4.70;;;5.60;99.90;;;;;;5033765;28;20119;-80
2022/04/29 02:30:33;;;;;;;6.85;4.28;;;5.60;99.90;;;;;;5033991;28;20048;-80
2022/04/29 02:32:58;;;;;;;8.93;5.38;;;5.70;99.90;;;;;;5033946;28;20049;-80
2022/04/29 02:35:24;;;;;;;9.30;5.13;;;5.70;99.90;;;;;;5033476;28;20049;-81
2022/04/29 02:37:50;;;;;;;10.07;4.80;;;5.80;99.90;;;;;;5033413;28;20042;-80
2022/04/29 02:40:15;;;;;;;8.73;4.97;;;5.90;99.90;;;;;;5032446;28;20037;-80
2022/04/29 02:42:41;;;;;;;8.57;5.25;;;5.90;99.90;;;;;;5034878;28;20047;-81
2022/04/29 02:45:07;;;;;;;9.27;4.95;;;5.80;99.90;;;;;;5036722;28;20041;-80
2022/04/29 02:47:32;;;;;;;9.40;5.15;;;5.70;99.90;;;;;;5034826;28;20044;-81
2022/04/29 02:49:58;;;;;;;10.30;4.85;;;5.60;99.90;;;;;;5033922;28;20720;-80
2022/04/29 02:52:24;;;;;;;8.02;5.60;;;5.60;99.90;;;;;;5033450;28;20041;-80
2022/04/29 02:54:49;;;;;;;9.73;5.45;;;5.50;99.90;;;;;;5033291;28;20518;-80
2022/04/29 02:57:15;;;;;;;8.55;5.40;;;5.60;99.90;;;;;;5033820;28;20042;-81
2022/04/29 02:59:40;;;;;;;9.48;5.55;;;5.70;99.90;;;;;;5033803;28;20037;-80
2022/04/29 03:02:06;;;;;;;12.38;5.97;;;5.70;99.90;;;;;;5034240;28;20041;-81
2022/04/29 03:04:32;;;;;;;12.10;5.68;;;5.70;99.90;;;;;;5035573;28;20095;-81
2022/04/29 03:06:58;;;;;;;7.80;5.30;;;5.70;99.90;;;;;;5018807;28;20065;-82
2022/04/29 03:09:25;;;;;;;12.68;5.45;;;5.80;99.90;;;;;;5035775;28;20046;-81
2022/04/29 03:11:51;;;;;;;11.00;5.72;;;5.70;99.90;;;;;;5035594;28;20045;-81
2022/04/29 03:14:17;;;;;;;11.82;6.03;;;5.70;99.90;;;;;;5036518;28;20103;-80
2022/04/29 03:16:43;;;;;;;9.27;5.88;;;5.60;99.90;;;;;;5037301;28;20124;-81
2022/04/29 03:19:09;;;;;;;10.45;5.75;;;5.60;99.90;;;;;;5037997;28;20038;-82
2022/04/29 03:21:35;;;;;;;9.65;5.78;;;5.60;99.90;;;;;;5037324;28;20121;-82
2022/04/29 03:24:01;;;;;;;8.65;5.53;;;5.70;99.90;;;;;;5036790;28;20068;-81
2022/04/29 03:26:27;;;;;;;13.90;5.90;;;5.70;99.90;;;;;;5035179;28;20052;-80
2022/04/29 03:28:53;;;;;;;10.45;5.80;;;5.70;99.90;;;;;;5035472;28;20037;-80
2022/04/29 03:31:19;;;;;;;7.40;5.10;;;5.80;99.90;;;;;;5035154;28;20037;-80
2022/04/29 03:33:44;;;;;;;9.27;5.43;;;5.90;99.90;;;;;;5036201;28;20565;-82
2022/04/29 03:36:10;;;;;;;13.77;6.70;;;5.90;99.90;;;;;;5034933;28;20095;-80
2022/04/29 03:38:36;;;;;;;11.13;6.60;;;5.90;99.90;;;;;;5033384;28;20053;-80
2022/04/29 03:41:02;;;;;;;10.80;6.30;;;5.90;99.90;;;;;;5033392;28;20407;-81
2022/04/29 03:43:28;;;;;;;8.60;6.03;;;5.80;99.90;;;;;;5035342;28;20033;-80
2022/04/29 03:45:54;;;;;;;11.20;5.82;;;5.80;99.90;;;;;;5035785;28;20041;-81
2022/04/29 03:48:19;;;;;;;10.82;6.28;;;5.80;99.90;;;;;;5036214;28;20037;-81
2022/04/29 03:50:45;;;;;;;12.77;6.10;;;5.80;99.90;;;;;;5036369;28;20175;-82
2022/04/29 03:53:11;;;;;;;9.98;5.70;;;5.90;99.90;;;;;;5036432;28;20045;-81
2022/04/29 03:55:36;;;;;;;10.75;5.65;;;5.80;99.90;;;;;;5035550;28;20061;-81
2022/04/29 03:58:03;;;;;;;15.25;6.40;;;5.80;99.90;;;;;;5035627;28;20064;-81
2022/04/29 04:00:31;;;;;;;10.75;6.45;;;5.80;99.90;;;;;;5035871;28;20116;-81
2022/04/29 04:02:57;;;;;;;13.07;6.30;;;5.90;99.90;;;;;;5036347;28;20144;-80
2022/04/29 04:05:23;;;;;;;11.63;6.15;;;5.90;99.90;;;;;;5035699;28;20507;-82
2022/04/29 04:07:49;;;;;;;9.40;5.60;;;6.00;99.90;;;;;;5036238;28;20073;-81
2022/04/29 04:10:15;;;;;;;11.23;5.45;;;6.10;99.90;;;;;;5035478;28;20049;-80
2022/04/29 04:12:46;;;;;;;13.70;5.82;;;6.00;99.90;;;;;;5031862;28;20038;-80
2022/04/29 04:15:13;;;;;;;10.70;6.70;;;6.00;99.90;;;;;;5033991;28;20043;-82
2022/04/29 04:17:39;;;;;;;10.43;6.30;;;6.10;99.90;;;;;;5035134;28;20073;-81
2022/04/29 04:20:06;;;;;;;9.77;6.88;;;6.00;99.90;;;;;;5032906;28;20029;-82
2022/04/29 04:22:35;;;;;;;10.75;6.28;;;6.10;99.90;;;;;;5032349;28;20127;-82
2022/04/29 04:25:11;;;;;;;10.10;6.60;;;6.20;99.90;;;;;;5032247;28;20119;-82
2022/04/29 04:27:38;;;;;;;11.68;6.35;;;6.10;99.90;;;;;;5031788;28;20526;-82
2022/04/29 04:30:05;;;;;;;10.07;6.40;;;6.20;99.90;;;;;;5033187;28;20407;-82
2022/04/29 04:32:34;;;;;;;10.27;6.35;;;6.20;99.90;;;;;;5032494;28;20557;-82
2022/04/29 04:35:00;;;;;;;10.57;6.63;;;6.10;99.90;;;;;;5033947;28;20124;-82
2022/04/29 04:37:27;;;;;;;12.20;6.80;;;6.20;99.90;;;;;;5014514;28;20124;-82
2022/04/29 04:39:54;;;;;;;9.85;6.25;;;6.20;99.90;;;;;;5013241;28;20160;-82
2022/04/29 04:42:23;;;;;;;11.02;6.28;;;6.30;99.90;;;;;;5014180;28;20080;-82
2022/04/29 04:44:50;;;;;;;13.27;6.45;;;6.20;99.90;;;;;;5030547;28;20380;-83
2022/04/29 04:47:16;;;;;;;10.27;6.80;;;6.20;99.90;;;;;;5032967;28;20037;-82
2022/04/29 04:49:42;;;;;;;8.45;6.32;;;6.30;99.90;;;;;;5037326;28;20083;-82
2022/04/29 04:52:08;;;;;;;10.13;6.03;;;6.30;99.90;;;;;;5037378;28;20484;-82
2022/04/29 04:54:34;;;;;;;10.32;5.90;;;6.50;99.90;;;;;;5037147;28;20037;-81
2022/04/29 04:57:00;;;;;;;9.88;6.38;;;6.50;99.90;;;;;;5035529;28;20044;-83
2022/04/29 04:59:26;;;;;;;10.10;6.53;;;6.60;99.90;;;;;;5034023;28;20033;-82
2022/04/29 05:01:53;;;;;;;10.82;5.80;;;6.60;99.90;;;;;;5036022;28;20120;-82
2022/04/29 05:04:19;;;;;;;10.80;6.32;;;6.80;99.90;;;;;;5035148;28;20041;-81
2022/04/29 05:06:44;;;;;;;13.63;6.55;;;6.80;99.90;;;;;;5036687;28;20045;-82
2022/04/29 05:09:10;;;;;;;11.27;6.80;;;6.90;99.90;;;;;;5021561;28;20048;-82
2022/04/29 05:11:36;;;;;;;12.35;6.60;;;6.90;99.90;;;;;;5038546;28;20091;-83
2022/04/29 05:14:01;;;;;;;10.52;6.40;;;7.00;99.90;;;;;;5039351;28;20064;-81
2022/04/29 05:16:27;;;;;;;8.38;6.15;;;7.10;99.90;;;;;;5039541;28;20037;-82
2022/04/29 05:18:52;;;;;;;11.88;6.32;;;7.30;99.90;;;;;;5035572;28;20096;-82
2022/04/29 05:21:18;;;;;;;13.13;7.53;;;7.40;99.90;;;;;;5033297;28;20407;-83
2022/04/29 05:23:44;;;;;;;10.75;6.57;;;7.50;99.90;;;;;;5016939;28;20045;-83
2022/04/29 05:26:09;;;;;;;10.95;7.05;;;7.60;99.90;;;;;;5032329;28;20124;-83
2022/04/29 05:28:35;;;;;;;13.68;7.30;;;7.70;99.90;;;;;;5032192;28;20037;-83
2022/04/29 05:31:02;;;;;;;14.57;7.93;;;7.80;99.90;;;;;;5032417;28;20037;-83
2022/04/29 05:33:29;;;;;;;10.43;6.32;;;7.80;99.90;;;;;;5033006;28;20037;-83
2022/04/29 05:35:55;;;;;;;10.00;6.53;;;7.90;99.90;;;;;;5016132;28;20061;-82
2022/04/29 05:38:21;;;;;;;15.05;6.70;;;7.90;99.90;;;;;;5016710;28;20092;-83
2022/04/29 05:43:31;;;;;;;10.48;6.57;;;7.90;99.90;;;;;;5032815;28;20507;-83
2022/04/29 05:45:57;;;;;;;11.00;7.10;;;8.00;99.90;;;;;;5016119;28;20045;-83
2022/04/29 05:48:23;;;;;;;12.73;6.80;;;8.00;99.90;;;;;;5032617;28;20050;-83
2022/04/29 05:50:48;;;;;;;12.32;6.57;;;8.10;99.90;;;;;;5032902;28;20107;-83
2022/04/29 05:53:15;;;;;;;12.30;6.55;;;8.00;99.90;;;;;;5032660;28;20057;-83
2022/04/29 05:55:41;;;;;;;11.02;6.45;;;8.10;99.90;;;;;;5031865;28;20045;-82
2022/04/29 05:58:06;;;;;;;11.93;7.07;;;8.10;99.90;;;;;;5031813;28;20047;-83
2022/04/29 06:00:32;;;;;;;10.32;6.50;;;8.10;99.90;;;;;;5031535;28;20041;-83
2022/04/29 06:02:58;;;;;;;11.07;6.43;;;8.20;99.90;;;;;;5031885;28;20045;-83
2022/04/29 06:05:24;;;;;;;12.10;6.35;;;8.20;99.90;;;;;;5032186;28;20466;-83
2022/04/29 06:07:50;;;;;;;11.35;6.65;;;8.30;99.90;;;;;;5032595;28;20073;-82
2022/04/29 06:10:16;;;;;;;11.40;6.30;;;8.30;99.90;;;;;;5032338;28;20065;-83
2022/04/29 06:12:42;;;;;;;9.98;6.22;;;8.40;99.90;;;;;;5032297;28;20096;-83
2022/04/29 06:15:19;;;;;;;10.23;6.25;;;8.40;99.90;;;;;;5014876;28;20078;-82
2022/04/29 06:17:45;;;;;;;12.68;7.18;;;8.40;99.90;;;;;;5032319;28;20121;-83
2022/04/29 06:20:11;;;;;;;15.82;7.85;;;8.50;99.90;;;;;;5032022;28;20120;-82
2022/04/29 06:22:44;;;;;;;12.10;6.00;;;8.60;99.90;;;;;;5021816;28;20037;-83
2022/04/29 06:25:10;;;;;;;10.55;5.28;;;8.70;99.90;;;;;;5043459;28;20541;-83
2022/04/29 06:27:35;;;;;;;8.90;5.00;;;8.70;99.90;;;;;;5035709;28;20124;-83
2022/04/29 06:30:01;;;;;;;9.85;4.47;;;8.80;99.90;;;;;;5032252;28;20128;-82
2022/04/29 06:32:26;;;;;;;12.05;4.85;;;8.80;99.90;;;;;;5032566;28;20048;-83
2022/04/29 06:34:52;;;;;;;9.55;4.40;;;8.80;99.90;;;;;;5031898;28;20037;-85
2022/04/29 06:37:20;;;;;;;8.90;3.90;;;8.90;99.90;;;;;;5031926;28;20044;-85
2022/04/29 06:39:46;;;;;;;10.25;3.63;;;9.00;99.90;;;;;;5030928;28;20069;-85
2022/04/29 06:42:11;;;;;;;5.80;3.58;;;9.00;99.90;;;;;;5033042;28;20091;-84
2022/04/29 06:44:37;;;;;;;5.10;2.85;;;9.10;99.90;;;;;;5033685;28;20132;-83
2022/04/29 06:47:03;;;;;;;8.15;3.40;;;9.10;99.90;;;;;;5018754;28;20037;-82
2022/04/29 06:49:29;;;;;;;8.55;3.33;;;9.20;99.90;;;;;;5035093;28;20097;-82
2022/04/29 06:51:55;;;;;;;6.05;3.10;;;9.30;99.90;;;;;;5035827;28;20115;-82
2022/04/29 06:54:20;;;;;;;8.43;3.25;;;9.40;99.90;;;;;;5036649;28;20045;-82
2022/04/29 06:56:46;;;;;;;10.00;3.58;;;9.50;99.90;;;;;;5035016;28;20056;-83
2022/04/29 06:59:11;;;;;;;8.05;3.15;;;9.50;99.90;;;;;;5036407;28;20037;-82
2022/04/29 07:01:37;;;;;;;7.97;2.97;;;9.50;99.90;;;;;;5035357;28;20037;-81
2022/04/29 07:04:02;;;;;;;7.85;3.30;;;9.50;99.90;;;;;;5036288;28;20041;-83
2022/04/29 07:06:28;;;;;;;7.10;3.45;;;9.50;99.90;;;;;;5035319;28;20041;-82
2022/04/29 07:08:54;;;;;;;9.63;3.05;;;9.50;99.90;;;;;;5034831;28;20116;-82
2022/04/29 07:11:20;;;;;;;7.18;2.97;;;9.50;99.90;;;;;;5034218;28;20091;-82
2022/04/29 07:13:45;;;;;;;5.03;2.80;;;9.40;99.90;;;;;;5034686;28;20036;-82
2022/04/29 07:16:11;;;;;;;4.78;2.70;;;9.40;99.90;;;;;;5035999;28;20124;-82
2022/04/29 07:18:36;;;;;;;8.80;2.95;;;9.30;99.90;;;;;;5032930;28;20479;-84
2022/04/29 07:21:05;;;;;;;10.85;3.78;;;9.30;99.90;;;;;;5031208;28;20033;-84
2022/04/29 07:23:31;;;;;;;8.85;2.97;;;9.30;99.90;;;;;;5016100;28;20380;-83
2022/04/29 07:25:58;;;;;;;9.57;3.10;;;9.30;99.90;;;;;;5030386;28;20048;-82
2022/04/29 07:28:23;;;;;;;4.53;2.80;;;9.30;99.90;;;;;;5033139;28;20072;-84
2022/04/29 07:30:49;;;;;;;7.38;3.20;;;9.30;99.90;;;;;;5034326;28;20041;-83
2022/04/29 07:33:15;;;;;;;8.48;2.95;;;9.30;99.90;;;;;;5032229;28;20045;-83
2022/04/29 07:43:54;;;;;;;7.55;3.38;;;9.50;99.90;;;;;;5030612;28;19917;-80
2022/04/29 07:46:21;;;;;;;7.28;3.75;;;9.60;99.90;;;;;;5030496;28;20045;-81
2022/04/29 07:48:47;;;;;;;7.32;3.70;;;9.70;99.90;;;;;;5031109;28;20076;-81
2022/04/29 07:51:12;;;;;;;9.05;4.05;;;9.80;99.90;;;;;;5028478;28;20033;-81
2022/04/29 07:53:38;;;;;;;7.03;4.03;;;10.00;99.90;;;;;;5033991;28;20560;-84
2022/04/29 07:56:05;;;;;;;8.73;4.43;;;10.20;99.90;;;;;;5032725;28;20064;-81
2022/04/29 07:58:31;;;;;;;8.20;3.67;;;10.40;99.90;;;;;;5032993;28;20110;-80
2022/04/29 08:00:57;;;;;;;10.00;3.70;;;10.50;99.90;;;;;;5032850;28;20079;-80
2022/04/29 08:03:23;;;;;;;6.53;3.53;;;10.40;99.90;;;;;;5028422;28;20041;-81
2022/04/29 08:05:49;;;;;;;7.55;3.58;;;10.40;99.90;;;;;;5044709;28;20041;-81
2022/04/29 08:08:15;;;;;;;5.63;3.08;;;10.40;99.90;;;;;;5030755;28;20045;-80
2022/04/29 08:10:41;;;;;;;6.95;3.17;;;10.40;99.90;;;;;;5013890;28;20044;-80
2022/04/29 08:13:06;;;;;;;10.05;3.85;;;10.30;99.90;;;;;;5028306;28;20050;-80
2022/04/29 08:15:32;;;;;;;10.23;4.10;;;10.30;99.90;;;;;;5027540;28;20041;-81
2022/04/29 08:17:59;;;;;;;6.20;3.63;;;10.30;99.90;;;;;;5027956;28;20033;-80
2022/04/29 08:20:25;;;;;;;7.35;3.78;;;10.30;99.90;;;;;;5028275;28;20069;-80
2022/04/29 08:22:50;;;;;;;8.27;3.50;;;10.30;99.90;;;;;;5029798;28;20118;-80
2022/04/29 08:25:20;;;;;;;4.63;3.13;;;10.40;99.90;;;;;;5048971;28;20057;-80
2022/04/29 08:27:46;;;;;;;6.45;2.58;;;10.50;99.90;;;;;;5033764;28;20046;-79
2022/04/29 08:30:14;;;;;;;7.68;2.53;;;10.50;99.90;;;;;;5037925;28;20037;-79
2022/04/29 08:32:41;;;;;;;5.63;2.38;;;10.70;99.90;;;;;;5036204;28;20048;-80
2022/04/29 08:35:09;;;;;;;6.82;2.50;;;10.80;99.90;;;;;;5033755;28;20128;-81
2022/04/29 08:37:36;;;;;;;7.70;2.90;;;10.80;99.90;;;;;;5018382;28;20059;-80
2022/04/29 08:40:03;;;;;;;10.57;3.40;;;10.80;99.90;;;;;;5033404;28;20161;-80
2022/04/29 08:42:36;;;;;;;4.10;3.10;;;10.70;99.90;;;;;;5049544;28;20037;-80
2022/04/29 08:45:02;;;;;;;8.95;2.80;;;10.70;99.90;;;;;;5015173;28;20379;-80
2022/04/29 08:47:27;;;;;;;7.53;2.30;;;10.70;99.90;;;;;;5018749;28;20049;-80
2022/04/29 08:49:54;;;;;;;11.27;2.95;;;10.80;99.90;;;;;;5033735;28;20431;-81
2022/04/29 08:52:20;;;;;;;4.78;2.47;;;10.80;99.90;;;;;;5018334;28;20045;-80
2022/04/29 09:00:22;;;;;;;7.00;2.80;;;10.80;99.90;;;;;;5017345;28;20065;-80
2022/04/29 09:02:47;;;;;;;6.57;2.72;;;10.90;99.90;;;;;;5017315;28;20042;-79
2022/04/29 09:05:13;;;;;;;8.07;2.90;;;10.90;99.90;;;;;;5017802;28;20317;-80
2022/04/29 09:08:00;;;;;;;5.90;3.00;;;11.00;99.90;;;;;;5031953;28;21003;-80
2022/04/29 09:10:34;;;;;;;5.13;2.80;;;11.00;99.90;;;;;;5035940;28;20046;-80
2022/04/29 09:13:13;;;;;;;8.15;2.80;;;11.10;99.90;;;;;;5017895;28;20107;-80
2022/04/29 09:15:59;;;;;;;6.88;2.72;;;11.10;99.90;;;;;;5033211;28;20041;-79
2022/04/29 09:18:33;;;;;;;4.55;2.85;;;11.10;99.90;;;;;;5019817;28;20029;-80
2022/04/29 09:21:00;;;;;;;5.57;2.95;;;11.00;99.90;;;;;;5036298;28;20116;-80
2022/04/29 09:23:30;;;;;;;5.80;3.05;;;11.00;99.90;;;;;;5041737;28;20271;-80
2022/04/29 09:25:59;;;;;;;7.28;2.88;;;11.00;99.90;;;;;;5041037;28;20050;-80
2022/04/29 09:28:25;;;;;;;8.00;2.88;;;11.00;99.90;;;;;;5037276;28;20099;-80
2022/04/29 09:30:56;;;;;;;6.50;2.65;;;11.00;99.90;;;;;;5036700;28;20495;-79
2022/04/29 09:33:23;;;;;;;5.28;2.70;;;11.00;99.90;;;;;;5036293;28;20129;-80
2022/04/29 09:35:49;;;;;;;6.55;2.70;;;11.00;99.90;;;;;;5018120;28;20091;-80
2022/04/29 09:41:00;;;;;;;3.97;2.65;;;11.00;99.90;;;;;;5036864;28;20033;-79
2022/04/29 09:43:42;;;;;;;5.95;2.78;;;11.00;99.90;;;;;;5034210;28;20034;-79
2022/04/29 09:46:22;;;;;;;6.88;3.40;;;11.00;99.90;;;;;;5033679;28;20088;-79
2022/04/29 09:48:59;;;;;;;7.15;3.20;;;11.10;99.90;;;;;;5016762;28;20125;-79
2022/04/29 09:51:52;;;;;;;8.55;2.92;;;11.10;99.90;;;;;;5032318;28;20045;-81
2022/04/29 09:54:30;;;;;;;5.95;2.80;;;11.10;99.90;;;;;;5032346;28;20045;-79
2022/04/29 09:57:03;;;;;;;5.35;3.13;;;11.10;99.90;;;;;;5032802;28;20033;-81
2022/04/29 09:59:44;;;;;;;9.63;3.47;;;11.10;99.90;;;;;;5030479;28;20192;-78
2022/04/29 10:02:12;;;;;;;6.70;3.60;;;11.00;99.90;;;;;;5031613;28;20491;-78
2022/04/29 10:04:40;;;;;;;5.90;4.22;;;10.80;99.90;;;;;;5031448;28;20514;-79
2022/04/29 10:07:08;;;;;;;6.88;3.72;;;10.60;99.90;;;;;;5032420;28;20087;-79
2022/04/29 10:09:40;;;;;;;7.75;3.78;;;10.70;99.90;;;;;;5026815;28;20052;-83
2022/04/29 10:12:27;;;;;;;8.38;3.97;;;10.80;99.90;;;;;;5024007;28;20041;-78
2022/04/29 10:14:59;;;;;;;6.75;3.63;;;11.00;99.90;;;;;;5027639;28;20045;-79
2022/04/29 10:23:09;;;;;;;8.00;4.07;;;11.10;99.90;;;;;;5012028;28;20084;-79
2022/04/29 10:25:40;;;;;;;7.35;3.88;;;11.20;99.90;;;;;;5028054;28;20045;-78
2022/04/29 10:28:07;;;;;;;9.85;4.05;;;11.20;99.90;;;;;;5011859;28;20045;-78
2022/04/29 10:30:35;;;;;;;5.50;4.07;;;10.90;99.90;;;;;;5011869;28;20050;-79
2022/04/29 10:33:06;;;;;;;7.38;3.85;;;11.00;99.90;;;;;;5012162;28;20385;-78
2022/04/29 10:35:58;;;;;;;11.27;3.70;;;11.00;99.90;;;;;;5011305;28;20069;-79
2022/04/29 10:38:31;;;;;;;6.18;4.03;;;11.10;99.90;;;;;;5011886;28;20041;-78
2022/04/29 10:41:24;;;;;;;7.38;4.18;;;11.00;99.90;;;;;;5012004;28;20072;-78
2022/04/29 10:43:50;;;;;;;6.45;4.07;;;11.00;99.90;;;;;;5011765;28;20063;-78
2022/04/29 10:46:36;;;;;;;9.15;4.10;;;10.80;99.90;;;;;;5022437;28;20045;-79
2022/04/29 10:49:21;;;;;;;6.50;3.95;;;10.70;99.90;;;;;;5031175;28;20041;-78
2022/04/29 10:51:52;;;;;;;6.15;4.25;;;10.80;99.90;;;;;;5029323;28;20550;-78
2022/04/29 10:54:42;;;;;;;8.73;3.97;;;10.80;99.90;;;;;;5015115;28;20073;-80
2022/04/29 10:57:12;;;;;;;8.25;3.90;;;10.90;99.90;;;;;;5030702;28;20046;-79
2022/04/29 10:59:57;;;;;;;5.45;3.60;;;11.00;99.90;;;;;;5030621;28;20038;-78
2022/04/29 11:02:32;;;;;;;7.63;3.55;;;11.00;99.90;;;;;;5030413;28;20060;-78
2022/04/29 11:05:03;;;;;;;5.30;3.58;;;11.20;99.90;;;;;;5030948;28;20495;-78
2022/04/29 11:07:46;;;;;;;5.72;3.88;;;11.40;99.90;;;;;;5031213;28;20041;-78
2022/04/29 11:10:20;;;;;;;7.25;3.67;;;11.50;99.90;;;;;;5031167;28;20113;-79
2022/04/29 11:12:57;;;;;;;8.23;4.03;;;11.60;99.90;;;;;;5027994;28;20029;-77
2022/04/29 11:15:38;;;;;;;8.32;3.92;;;11.60;99.90;;;;;;5025445;28;20431;-78
2022/04/29 11:18:33;;;;;;;8.05;3.90;;;11.50;99.90;;;;;;5029189;28;20500;-77
2022/04/29 11:21:00;;;;;;;6.32;3.80;;;11.60;99.90;;;;;;5009885;28;20103;-78
2022/04/29 11:26:15;;;;;;;8.13;4.20;;;11.70;99.90;;;;;;5027592;28;20053;-77
2022/04/29 11:28:41;;;;;;;4.53;3.47;;;11.60;99.90;;;;;;5030701;28;20038;-80
2022/04/29 11:31:08;;;;;;;8.55;3.85;;;11.70;99.90;;;;;;5030682;28;20075;-79
2022/04/29 11:33:35;;;;;;;7.90;3.92;;;11.70;99.90;;;;;;5030861;28;20145;-78
2022/04/29 11:36:11;;;;;;;5.10;3.70;;;11.80;99.90;;;;;;5030603;28;20041;-77
2022/04/29 11:38:45;;;;;;;8.98;3.70;;;11.90;99.90;;;;;;5030307;28;20049;-79
2022/04/29 11:41:14;;;;;;;;;;;11.90;99.90;;;;;;5028340;28;20120;-78
2022/04/29 11:43:40;;;;;;;6.07;3.83;;;11.90;99.90;;;;;;5030208;28;20011;-78
2022/04/29 11:46:09;;;;;;;5.47;3.63;;;12.00;99.90;;;;;;5030514;28;20521;-78
2022/04/29 11:48:35;;;;;;;6.10;3.35;;;12.10;99.90;;;;;;5029590;28;20045;-78
2022/04/29 11:51:04;;;;;;;5.72;3.40;;;12.20;99.90;;;;;;5029441;28;20041;-78
2022/04/29 11:53:31;;;;;;;7.55;3.40;;;12.20;99.90;;;;;;5027793;28;20037;-78
2022/04/29 11:55:56;;;;;;;4.60;3.10;;;12.30;99.90;;;;;;5022758;28;20171;-78
2022/04/29 11:58:22;;;;;;;4.53;2.80;;;12.40;99.90;;;;;;5026930;28;20559;-78
2022/04/29 12:00:52;;;;;;;4.47;2.67;;;12.50;99.90;;;;;;5018634;28;20072;-79
2022/04/29 12:03:19;;;;;;;8.65;3.30;;;12.60;99.90;;;;;;5027681;28;20029;-80
2022/04/29 12:05:45;;;;;;;5.15;2.92;;;12.50;99.90;;;;;;5010602;28;20063;-77
2022/04/29 12:08:12;;;;;;;7.35;2.80;;;12.50;99.90;;;;;;5027085;28;20037;-77
2022/04/29 12:10:37;;;;;;;4.32;2.67;;;12.50;99.90;;;;;;5028081;28;20129;-78
2022/04/29 12:13:04;;;;;;;7.25;3.03;;;12.50;99.90;;;;;;5028784;28;20594;-77
2022/04/29 12:15:32;;;;;;;5.10;2.85;;;12.10;99.90;;;;;;5028775;28;20037;-78
2022/04/29 12:18:03;;;;;;;5.10;3.00;;;12.10;99.90;;;;;;5028821;28;20041;-78
2022/04/29 12:20:29;;;;;;;4.68;2.70;;;12.00;99.90;;;;;;5029379;28;20048;-77
2022/04/29 12:23:06;;;;;;;4.43;2.65;;;12.00;99.90;;;;;;5013724;28;20471;-77
2022/04/29 12:25:42;;;;;;;7.82;2.75;;;11.90;99.90;;;;;;5013453;28;20037;-77
2022/04/29 12:28:11;;;;;;;6.70;3.10;;;12.10;99.90;;;;;;5030241;28;20069;-77
2022/04/29 12:36:12;;;;;;;6.07;3.00;;;12.30;99.90;;;;;;5034886;28;20099;-76
2022/04/29 12:38:39;;;;;;;6.22;2.50;;;12.40;99.90;;;;;;5037319;28;20553;-77
2022/04/29 12:41:20;;;;;;;5.75;2.67;;;12.40;99.90;;;;;;5025641;28;20034;-76
2022/04/29 12:43:46;;;;;;;5.55;3.05;;;12.40;99.90;;;;;;5009873;28;20053;-77
2022/04/29 12:46:15;;;;;;;5.05;2.60;;;12.50;99.90;;;;;;5010071;28;20046;-77
2022/04/29 12:48:51;;;;;;;5.47;3.08;;;12.60;99.90;;;;;;5009823;28;20092;-76
2022/04/29 12:51:33;;;;;;;4.72;2.70;;;12.70;99.90;;;;;;5009838;28;20125;-77
2022/04/29 12:54:01;;;;;;;4.90;2.60;;;12.70;99.90;;;;;;5019665;28;20041;-77
2022/04/29 12:56:31;;;;;;;6.07;2.88;;;12.70;99.90;;;;;;5029629;28;20049;-76
2022/04/29 12:58:58;;;;;;;5.88;3.13;;;12.70;99.90;;;;;;5029823;28;20407;-76
2022/04/29 13:01:24;;;;;;;5.10;2.90;;;12.70;99.90;;;;;;5029548;28;20553;-77
2022/04/29 13:03:54;;;;;;;7.82;2.80;;;12.60;99.90;;;;;;5029301;28;20128;-76
2022/04/29 13:06:23;;;;;;;6.95;2.92;;;12.50;99.90;;;;;;5029546;28;20041;-77
2022/04/29 13:08:56;;;;;;;8.13;3.03;;;12.60;99.90;;;;;;5029479;28;20053;-76
2022/04/29 13:11:23;;;;;;;6.97;3.13;;;12.40;99.90;;;;;;5032112;28;20042;-76
2022/04/29 13:13:51;;;;;;;7.80;3.00;;;12.40;99.90;;;;;;5032984;28;20057;-76
2022/04/29 13:16:17;;;;;;;5.30;2.70;;;12.30;99.90;;;;;;5032957;28;20045;-76
2022/04/29 13:18:43;;;;;;;5.95;2.67;;;12.30;99.90;;;;;;5033093;28;20144;-76
2022/04/29 13:21:10;;;;;;;6.15;3.17;;;12.40;99.90;;;;;;5032884;28;20056;-76
2022/04/29 13:23:37;;;;;;;5.38;2.75;;;12.50;99.90;;;;;;5031036;28;20411;-76
2022/04/29 13:26:03;;;;;;;5.93;2.60;;;12.50;99.90;;;;;;5015462;28;20061;-77
2022/04/29 13:28:34;;;;;;;4.22;2.45;;;12.40;99.90;;;;;;5030089;28;20041;-76